KCNU/CNU METAR and TAF weather

Enter ICAO airport designator
Station Type Date Time Source
KCNU METAR 2019/04/25 21:52 UTC NOAA

KCNU 252152Z AUTO 33021G33KT 10SM SCT095 BKN110 22/11 A2988 RMK AO2 PK WND 32034/2057 SLP112 T02170111


Station Type Date Time Source
KCNU Decoded METAR 2019/04/25 21:52 UTC NOAA

CHANUTE JOHNSON AIRPORT, KS, United States (KCNU) 37-40N 95-29W 297M
Apr 25, 2019 - 05:52 PM EDT / 2019.04.25 2152 UTC
Wind: from the NNW (330 degrees) at 24 MPH (21 KT) gusting to 38 MPH (33 KT):0
Visibility: 10 mile(s):0
Sky conditions: mostly cloudy
Temperature: 71.1 F (21.7 C)
Dew Point: 52.0 F (11.1 C)
Relative Humidity: 50%
Pressure (altimeter): 29.88 in. Hg (1011 hPa)
ob: KCNU 252152Z AUTO 33021G33KT 10SM SCT095 BKN110 22/11 A2988 RMK AO2 PK WND 32034/2057 SLP112 T02170111
cycle: 22

Station Type Date Time Source
KCNU TAF 2019/04/25 20:59 UTC NOAA

TAF
AMD KCNU 251959Z 2520/2618 33012G23KT P6SM BKN110
FM252100 33018G26KT P6SM SCT110
FM260200 35010KT P6SM SKC
FM261700 01007KT P6SM FEW250

Example: see airport list